Data for 12/07/2010

Time Sea-Level Adjusted Pressure Absolute Pressure Temperature Relative Humidity Dew Point   
(mb) (inHg) (mb) (inHg) (C) (F) (%) (C) (F)
00:05 1024 30.24 853 25.19 -4.1 24.6 91 -5.4 22.3
00:10 1024 30.24 853 25.19 -4.3 24.3 92 -5.4 22.3
00:15 1024 30.24 853 25.19 -4.2 24.4 93 -5.2 22.6
00:20 1024 30.24 853 25.19 -4.1 24.7 93 -5.1 22.9
00:25 1024 30.24 853 25.19 -3.8 25.2 91 -5 23
00:30 1024 30.24 853 25.19 -3.7 25.4 91 -4.9 23.2
00:35 1024 30.24 853 25.19 -3.5 25.8 90 -4.9 23.3
00:40 1024 30.24 853 25.19 -3.6 25.6 90 -5 23
00:45 1024 30.24 853 25.19 -3.8 25.1 90 -5.2 22.6
00:50 1024 30.24 853 25.19 -4 24.8 92 -5.2 22.7
00:55 1024 30.24 853 25.19 -4 24.9 92 -5 22.9
01:00 1024 30.24 853 25.19 -3.8 25.1 92 -4.9 23.2
01:05 1024 30.24 853 25.19 -3.9 24.9 93 -4.8 23.3
01:10 1024 30.24 853 25.19 -3.9 25 93 -4.9 23.2
01:15 1024 30.24 853 25.19 -3.9 25 94 -4.8 23.4
01:20 1024 30.24 853 25.19 -3.8 25.2 93 -4.7 23.5
01:25 1024 30.24 853 25.19 -3.8 25.1 93 -4.8 23.4
01:30 1024 30.24 854 25.22 -3.9 25 93 -4.8 23.3
01:35 1024 30.24 854 25.22 -3.9 25 93 -4.9 23.2
01:40 1025 30.27 854 25.22 -4 24.7 92 -5.1 22.9
01:45 1025 30.27 854 25.22 -4.2 24.5 92 -5.3 22.5
01:50 1025 30.27 854 25.22 -4.5 24 92 -5.6 21.9
01:55 1025 30.27 854 25.22 -4.7 23.5 92 -5.9 21.4
02:00 1025 30.27 854 25.22 -4.8 23.4 91 -6 21.2
02:05 1025 30.27 854 25.22 -4.9 23.1 91 -6.2 20.9
02:10 1025 30.27 854 25.22 -5.2 22.6 91 -6.5 20.2
02:15 1025 30.27 854 25.22 -5.6 21.8 91 -6.9 19.6
02:20 1025 30.27 854 25.22 -6.2 20.9 94 -7 19.4
02:25 1025 30.27 854 25.22 -6.2 20.8 96 -6.8 19.8
02:30 1025 30.27 854 25.22 -6.2 20.8 96 -6.7 19.9
02:35 1025 30.27 854 25.22 -6 21.3 96 -6.5 20.4
02:40 1025 30.27 854 25.22 -5.7 21.7 97 -6.1 21
02:45 1025 30.27 854 25.22 -5.3 22.5 97 -5.7 21.8
02:50 1025 30.27 854 25.22 -5.1 22.9 97 -5.5 22.1
02:55 1025 30.27 854 25.22 -5.3 22.5 94 -6.2 20.9
03:00 1025 30.27 855 25.25 -6.6 20.2 94 -7.3 18.8
03:05 1025 30.27 855 25.25 -6.9 19.7 96 -7.4 18.6
03:10 1025 30.27 855 25.25 -6.3 20.6 97 -6.7 19.9
03:15 1026 30.3 855 25.25 -5.8 21.6 97 -6.1 21
03:20 1026 30.3 855 25.25 -5.6 22 97 -6 21.3
03:25 1026 30.3 855 25.25 -5.6 22 96 -6.1 21
03:30 1026 30.3 855 25.25 -5.7 21.8 96 -6.3 20.7
03:35 1026 30.3 855 25.25 -5.8 21.6 96 -6.4 20.5
03:40 1026 30.3 855 25.25 -5.7 21.7 96 -6.3 20.6
03:45 1026 30.3 855 25.25 -5.8 21.5 95 -6.5 20.3
03:50 1026 30.3 855 25.25 -6.1 21.1 94 -6.8 19.7
03:55 1026 30.3 855 25.25 -6.5 20.3 94 -7.3 18.8
04:00 1026 30.3 855 25.25 -6.7 19.9 94 -7.5 18.5
04:05 1026 30.3 855 25.25 -6.8 19.8 95 -7.5 18.5
04:10 1026 30.3 856 25.28 -6.6 20.1 95 -7.4 18.7
04:15 1026 30.3 856 25.28 -6.5 20.3 95 -7.2 19.1
04:20 1026 30.3 856 25.28 -6.3 20.6 96 -6.9 19.6
04:25 1027 30.33 856 25.28 -6.3 20.7 96 -6.7 19.9
04:30 1027 30.33 856 25.28 -5.9 21.4 97 -6.3 20.6
04:35 1027 30.33 856 25.28 -5.7 21.7 96 -6.2 20.9
04:40 1027 30.33 856 25.28 -5.6 22 96 -6.1 21
04:45 1027 30.33 856 25.28 -5.5 22.2 96 -6.1 21.1
04:50 1027 30.33 856 25.28 -5.4 22.2 96 -6 21.2
04:55 1027 30.33 856 25.28 -5.3 22.5 95 -5.9 21.4
05:00 1027 30.33 856 25.28 -5 22.9 95 -5.8 21.6
05:05 1027 30.33 856 25.28 -4.8 23.3 94 -5.7 21.8
05:10 1027 30.33 856 25.28 -4.5 23.9 92 -5.6 22
05:15 1027 30.33 856 25.28 -4.4 24.1 92 -5.5 22.1
05:20 1027 30.33 856 25.28 -4.1 24.6 91 -5.3 22.4
05:25 1027 30.33 856 25.28 -3.8 25.1 91 -5.1 22.8
05:30 1027 30.33 856 25.28 -3.6 25.5 90 -5.1 22.8
05:35 1027 30.33 856 25.28 -4 24.9 92 -5.1 22.8
05:40 1027 30.33 856 25.28 -4.1 24.7 92 -5.1 22.8
05:45 1027 30.33 856 25.28 -3.6 25.4 94 -4.5 23.8
05:50 1027 30.33 856 25.28 -3 26.6 93 -4.1 24.7
05:55 1027 30.33 856 25.28 -2.8 26.9 93 -3.9 25
06:00 1027 30.33 856 25.28 -2.7 27.2 92 -3.7 25.3
06:05 1027 30.33 856 25.28 -2.6 27.4 90 -3.9 24.9
06:10 1027 30.33 856 25.28 -2.9 26.8 92 -4.1 24.7
06:15 1027 30.33 856 25.28 -2.8 27 92 -3.9 25
06:20 1027 30.33 856 25.28 -2.5 27.4 91 -3.8 25.2
06:25 1027 30.33 856 25.28 -2.5 27.5 92 -3.6 25.5
06:30 1027 30.33 856 25.28 -2.4 27.6 92 -3.5 25.7
06:35 1027 30.33 856 25.28 -2.3 27.9 92 -3.5 25.8
06:40 1027 30.33 856 25.28 -2.3 27.9 92 -3.3 26
06:45 1027 30.33 856 25.28 -2.3 27.9 92 -3.3 26
06:50 1027 30.33 856 25.28 -2.3 27.9 93 -3.3 26.1
06:55 1027 30.33 856 25.28 -2.3 27.8 93 -3.3 26.1
07:00 1027 30.33 856 25.28 -2.1 28.2 92 -3.2 26.2
07:05 1027 30.33 856 25.28 -1.9 28.5 92 -3.1 26.4
07:10 1027 30.33 856 25.28 -1.7 29 91 -2.9 26.7
07:15 1027 30.33 856 25.28 -1.3 29.7 89 -2.9 26.8
07:20 1027 30.33 856 25.28 -1.3 29.7 92 -2.5 27.5
07:25 1027 30.33 856 25.28 -1.1 30 90 -2.6 27.4
07:30 1026 30.3 856 25.28 -0.4 31.2 86 -2.6 27.4
07:35 1027 30.33 856 25.28 -0.4 31.3 86 -2.4 27.6
07:40 1027 30.33 856 25.28 -0.4 31.3 85 -2.6 27.3
07:45 1027 30.33 856 25.28 -0.4 31.3 84 -2.7 27.1
07:50 1027 30.33 856 25.28 -0.8 30.5 82 -3.5 25.7
07:55 1027 30.33 856 25.28 -2.1 28.3 86 -4 24.7
08:00 1027 30.33 856 25.28 -2.7 27.2 88 -4.4 24.1
08:05 1027 30.33 856 25.28 -3.1 26.4 90 -4.5 23.9
08:10 1027 30.33 856 25.28 -3.3 26.1 91 -4.6 23.8
08:15 1027 30.33 856 25.28 -3.4 25.9 92 -4.5 23.8
08:20 1027 30.33 856 25.28 -3.3 26.1 90 -4.7 23.6
08:25 1027 30.33 856 25.28 -3.4 26 91 -4.6 23.7
08:30 1027 30.33 856 25.28 -3.6 25.4 92 -4.8 23.4
08:35 1027 30.33 856 25.28 -3.4 25.9 91 -4.7 23.5
08:40 1027 30.33 856 25.28 -3.3 26 87 -5.2 22.7
08:45 1027 30.33 856 25.28 -3.4 25.9 86 -5.4 22.3
08:50 1027 30.33 856 25.28 -3.2 26.2 86 -5.3 22.5
08:55 1027 30.33 856 25.28 -2.7 27.1 82 -5.3 22.5
09:00 1027 30.33 856 25.28 -2.4 27.6 80 -5.4 22.3
09:05 1027 30.33 856 25.28 -2.1 28.3 78 -5.3 22.4
09:10 1027 30.33 856 25.28 -1.7 28.9 76 -5.4 22.3
09:15 1027 30.33 857 25.31 -2.7 27.2 83 -5.1 22.8
09:20 1027 30.33 857 25.31 -2.9 26.8 83 -5.4 22.3
09:25 1027 30.33 857 25.31 -2.2 28 80 -5.2 22.6
09:30 1027 30.33 856 25.28 -2.1 28.2 80 -5.1 22.8
09:35 1027 30.33 856 25.28 -1.6 29.1 78 -4.9 23.2
09:40 1027 30.33 856 25.28 -1.8 28.7 78 -5.1 22.8
09:45 1027 30.33 856 25.28 -1.9 28.5 79 -5.1 22.8
09:50 1027 30.33 856 25.28 -1.6 29.2 78 -5 23.1
09:55 1027 30.33 856 25.28 -1.5 29.2 80 -4.6 23.7
10:00 1027 30.33 856 25.28 -1.4 29.4 79 -4.6 23.8
10:05 1027 30.33 856 25.28 -1.4 29.6 79 -4.6 23.7
10:10 1027 30.33 856 25.28 -0.8 30.5 77 -4.3 24.3
10:15 1027 30.33 856 25.28 -0.3 31.4 76 -4 24.7
10:20 1027 30.33 856 25.28 0.2 32.3 75 -3.8 25.2
10:25 1027 30.33 856 25.28 -0 31.9 77 -3.7 25.4
10:30 1027 30.33 856 25.28 -0.1 31.8 76 -3.8 25.1
10:35 1027 30.33 856 25.28 0.7 33.3 70 -4.1 24.5
10:40 1027 30.33 856 25.28 1.2 34.2 66 -4.3 24.2
10:45 1027 30.33 856 25.28 1.2 34.2 65 -4.6 23.7
10:50 1027 30.33 857 25.31 1 33.9 65 -4.8 23.4
10:55 1027 30.33 857 25.31 0.1 32.1 72 -4.4 24.1
11:00 1027 30.33 857 25.31 -0.1 31.7 72 -4.6 23.7
11:05 1027 30.33 857 25.31 0.5 32.9 70 -4.3 24.2
11:10 1027 30.33 857 25.31 0.6 33 70 -4.3 24.3
11:15 1027 30.33 857 25.31 0.8 33.4 70 -4.1 24.6
11:20 1027 30.33 856 25.28 0.6 33.1 72 -3.9 25.1
11:25 1027 30.33 856 25.28 0.4 32.8 72 -4.1 24.6
11:30 1027 30.33 856 25.28 0.7 33.3 69 -4.3 24.3
11:35 1027 30.33 856 25.28 0.9 33.7 69 -4.1 24.7
11:40 1027 30.33 856 25.28 0.2 32.4 73 -4 24.7
11:45 1027 30.33 856 25.28 0.3 32.6 72 -4.1 24.7
11:50 1027 30.33 856 25.28 -0.1 31.8 74 -4.2 24.4
11:55 1027 30.33 856 25.28 -0.5 31.1 76 -4.2 24.4
12:00 1027 30.33 856 25.28 -0.5 31.1 76 -4.2 24.4
12:05 1026 30.3 856 25.28 -0 32 73 -4.4 24.1
12:10 1026 30.3 856 25.28 0.4 32.7 73 -3.9 25
12:15 1026 30.3 855 25.25 1.2 34.1 71 -3.4 25.8
12:20 1026 30.3 855 25.25 0.8 33.4 74 -3.3 26
12:25 1026 30.3 855 25.25 0.9 33.6 72 -3.7 25.4
12:30 1026 30.3 855 25.25 1.3 34.4 70 -3.4 25.8
12:35 1026 30.3 855 25.25 2.5 36.5 66 -3.2 26.2
12:40 1026 30.3 855 25.25 2.9 37.2 66 -2.9 26.8
12:45 1026 30.3 855 25.25 2.8 37 65 -3.2 26.2
12:50 1026 30.3 855 25.25 2.9 37.2 65 -3 26.6
12:55 1026 30.3 855 25.25 2.7 36.9 68 -2.6 27.3
13:00 1026 30.3 855 25.25 2.5 36.5 68 -2.8 27
13:05 1026 30.3 855 25.25 2.8 37 66 -2.9 26.7
13:10 1026 30.3 855 25.25 3.1 37.6 65 -2.8 27
13:15 1026 30.3 855 25.25 2.9 37.3 65 -2.9 26.8
13:20 1026 30.3 855 25.25 3.5 38.4 63 -2.8 27
13:25 1026 30.3 855 25.25 3.9 39 62 -2.7 27.2
13:30 1026 30.3 855 25.25 4.4 39.9 61 -2.5 27.5
13:35 1026 30.3 855 25.25 4.1 39.3 63 -2.4 27.7
13:40 1026 30.3 855 25.25 3.6 38.5 64 -2.5 27.5
13:45 1026 30.3 855 25.25 3.4 38.1 65 -2.6 27.3
13:50 1026 30.3 855 25.25 3 37.3 65 -2.9 26.8
13:55 1026 30.3 855 25.25 2.9 37.3 64 -3.1 26.4
14:00 1026 30.3 855 25.25 3.1 37.6 65 -2.9 26.8
14:05 1026 30.3 855 25.25 3 37.5 65 -3 26.7
14:10 1026 30.3 855 25.25 2.8 37.1 65 -3 26.5
14:15 1026 30.3 855 25.25 3.1 37.6 64 -3 26.7
14:20 1026 30.3 855 25.25 3.1 37.5 63 -3.3 26.1
14:25 1026 30.3 855 25.25 3.4 38.1 63 -3 26.7
14:30 1026 30.3 855 25.25 3.4 38.2 63 -3 26.6
14:35 1026 30.3 855 25.25 3.3 38 63 -3.1 26.4
14:40 1026 30.3 855 25.25 3.1 37.6 64 -2.9 26.8
14:45 1026 30.3 855 25.25 2.7 36.8 66 -3 26.5
14:50 1026 30.3 855 25.25 2.4 36.2 68 -3 26.7
14:55 1026 30.3 855 25.25 2.1 35.7 68 -3.3 26.1
15:00 1026 30.3 855 25.25 2.2 36 67 -3.2 26.3
15:05 1026 30.3 855 25.25 2.3 36.1 67 -3.3 26
15:10 1026 30.3 855 25.25 2.8 37 65 -3.2 26.3
15:15 1026 30.3 855 25.25 2.7 36.8 66 -3 26.5
15:20 1025 30.27 854 25.22 2.2 35.9 69 -2.9 26.7
15:25 1025 30.27 854 25.22 2 35.6 68 -3.3 26.1
15:30 1025 30.27 854 25.22 2 35.6 69 -3.1 26.3
15:35 1025 30.27 854 25.22 1.8 35.2 70 -3.1 26.5
15:40 1025 30.27 854 25.22 1.3 34.4 73 -3 26.5
15:45 1025 30.27 854 25.22 1.1 34 73 -3.2 26.2
15:50 1025 30.27 854 25.22 1.2 34.1 74 -3 26.6
15:55 1025 30.27 854 25.22 0.8 33.5 75 -3.1 26.5
16:00 1025 30.27 854 25.22 0.5 32.8 75 -3.4 25.8
16:05 1025 30.27 854 25.22 -0.1 31.8 78 -3.4 25.8
16:10 1025 30.27 854 25.22 -0.5 31.2 80 -3.5 25.8
16:15 1025 30.27 854 25.22 -0.6 31 80 -3.6 25.6
16:20 1025 30.27 854 25.22 -0.5 31.1 79 -3.7 25.3
16:25 1025 30.27 854 25.22 -0.4 31.2 80 -3.5 25.7
16:30 1025 30.27 854 25.22 -0.3 31.4 79 -3.6 25.6
16:35 1025 30.27 854 25.22 -0.5 31 81 -3.5 25.7
16:40 1025 30.27 854 25.22 -1 30.3 83 -3.5 25.6
16:45 1025 30.27 854 25.22 -1.2 29.9 84 -3.6 25.6
16:50 1025 30.27 854 25.22 -1.3 29.6 85 -3.6 25.5
16:55 1025 30.27 854 25.22 -1.6 29.2 85 -3.8 25.2
17:00 1025 30.27 854 25.22 -1.7 28.9 86 -3.7 25.3
17:05 1025 30.27 854 25.22 -1.8 28.7 87 -3.8 25.2
17:10 1025 30.27 854 25.22 -1.8 28.8 87 -3.7 25.3
17:15 1025 30.27 854 25.22 -1.6 29.2 87 -3.4 25.9
17:20 1025 30.27 854 25.22 -1.3 29.6 87 -3.3 26
17:25 1025 30.27 854 25.22 -1.2 29.8 85 -3.4 25.8
17:30 1025 30.27 854 25.22 -1.4 29.6 85 -3.5 25.6
17:35 1025 30.27 854 25.22 -1.5 29.2 86 -3.5 25.6
17:40 1025 30.27 854 25.22 -1.6 29.2 86 -3.6 25.6
17:45 1025 30.27 854 25.22 -1.8 28.7 87 -3.7 25.4
17:50 1025 30.27 854 25.22 -2.1 28.2 88 -3.8 25.2
17:55 1025 30.27 854 25.22 -2.2 28 89 -3.8 25.1
18:00 1025 30.27 854 25.22 -2.2 28 89 -3.8 25.2
18:05 1025 30.27 854 25.22 -2.3 27.8 89 -3.8 25.1
18:10 1025 30.27 854 25.22 -2.5 27.5 90 -4 24.8
18:15 1025 30.27 854 25.22 -2.8 27 90 -4.2 24.5
18:20 1025 30.27 854 25.22 -3.1 26.5 92 -4.2 24.4
18:25 1025 30.27 854 25.22 -3 26.6 93 -4 24.8
18:30 1025 30.27 854 25.22 -2.7 27.2 91 -3.9 24.9
18:35 1025 30.27 854 25.22 -2.8 27 89 -4.3 24.2
18:40 1025 30.27 854 25.22 -3.2 26.3 92 -4.3 24.2
18:45 1025 30.27 854 25.22 -3 26.6 91 -4.3 24.2
18:50 1025 30.27 854 25.22 -3.1 26.3 91 -4.4 24.1
18:55 1025 30.27 854 25.22 -3.3 26 91 -4.6 23.7
19:00 1025 30.27 854 25.22 -3.4 25.9 92 -4.5 23.9
19:05 1025 30.27 854 25.22 -3.3 26 92 -4.5 24
19:10 1024 30.24 854 25.22 -3.2 26.3 91 -4.5 23.9
19:15 1024 30.24 854 25.22 -3.3 26.1 90 -4.6 23.7
19:20 1024 30.24 854 25.22 -3.3 26.1 92 -4.5 23.9
19:25 1024 30.24 854 25.22 -3.2 26.2 91 -4.5 23.8
19:30 1024 30.24 854 25.22 -3.3 26 90 -4.7 23.6
19:35 1024 30.24 854 25.22 -3.4 25.9 91 -4.7 23.6
19:40 1024 30.24 853 25.19 -3.4 25.9 91 -4.7 23.5
19:45 1024 30.24 853 25.19 -3.3 26.1 89 -4.8 23.3
19:50 1024 30.24 854 25.22 -3.2 26.2 89 -4.8 23.4
19:55 1024 30.24 854 25.22 -3.1 26.4 89 -4.6 23.7
20:00 1024 30.24 854 25.22 -2.5 27.5 87 -4.4 24.1
20:05 1024 30.24 854 25.22 -2.1 28.1 85 -4.4 24.1
20:10 1024 30.24 853 25.19 -2.2 28.1 86 -4.3 24.3
20:15 1024 30.24 853 25.19 -2.5 27.5 88 -4.2 24.4
20:20 1024 30.24 853 25.19 -2.5 27.5 86 -4.5 23.9
20:25 1024 30.24 853 25.19 -2.9 26.9 86 -4.8 23.3
20:30 1024 30.24 853 25.19 -2.8 26.9 89 -4.4 24.1
20:35 1024 30.24 853 25.19 -1.9 28.5 84 -4.2 24.4
20:40 1024 30.24 853 25.19 -2.3 27.8 85 -4.6 23.8
20:45 1024 30.24 853 25.19 -2.9 26.8 86 -4.9 23.2
20:50 1024 30.24 853 25.19 -3.1 26.5 87 -4.9 23.2
20:55 1024 30.24 853 25.19 -3.2 26.2 89 -4.8 23.4
21:00 1024 30.24 853 25.19 -3.1 26.4 87 -5 23
21:05 1024 30.24 853 25.19 -3.3 26 87 -5.2 22.7
21:10 1024 30.24 853 25.19 -3.6 25.5 87 -5.4 22.2
21:15 1024 30.24 853 25.19 -3.8 25.1 89 -5.4 22.3
21:20 1024 30.24 853 25.19 -3.8 25.2 88 -5.5 22.2
21:25 1024 30.24 853 25.19 -3.6 25.4 88 -5.4 22.3
21:30 1024 30.24 853 25.19 -3.5 25.7 87 -5.4 22.3
21:35 1024 30.24 853 25.19 -3.9 25 87 -5.7 21.7
21:40 1024 30.24 853 25.19 -4.3 24.3 90 -5.7 21.7
21:45 1024 30.24 853 25.19 -4.4 24 91 -5.6 21.9
21:50 1024 30.24 853 25.19 -4 24.9 89 -5.5 22.1
21:55 1024 30.24 853 25.19 -3.8 25.2 88 -5.5 22.1
22:00 1024 30.24 853 25.19 -3.6 25.6 87 -5.4 22.2
22:05 1023 30.21 853 25.19 -3.4 25.9 86 -5.4 22.3
22:10 1023 30.21 853 25.19 -3.5 25.7 87 -5.4 22.2
22:15 1023 30.21 853 25.19 -3.8 25.2 88 -5.6 22
22:20 1023 30.21 852 25.16 -3.7 25.4 87 -5.6 21.9
22:25 1023 30.21 852 25.16 -3.8 25.1 86 -5.8 21.6
22:30 1023 30.21 852 25.16 -3.9 24.9 88 -5.6 21.9
22:35 1023 30.21 852 25.16 -3.3 26 87 -5.3 22.5
22:40 1023 30.21 852 25.16 -2.4 27.7 82 -5 23
22:45 1023 30.21 852 25.16 -2.1 28.1 81 -5 23
22:50 1023 30.21 852 25.16 -2.7 27.2 84 -5 23.1
22:55 1023 30.21 852 25.16 -2.2 28 81 -5 22.9
23:00 1023 30.21 852 25.16 -2 28.5 81 -4.8 23.3
23:05 1023 30.21 852 25.16 -2.4 27.7 82 -5.1 22.9
23:10 1023 30.21 852 25.16 -2.8 26.9 84 -5.2 22.6
23:15 1023 30.21 852 25.16 -3.1 26.5 87 -5 23.1
23:20 1023 30.21 852 25.16 -2.7 27.2 86 -4.6 23.7
23:25 1023 30.21 852 25.16 -1.7 28.9 83 -4.3 24.3
23:30 1022 30.18 852 25.16 -1.7 28.9 79 -4.8 23.3
23:35 1022 30.18 852 25.16 -1.9 28.5 79 -5.1 22.8
23:40 1022 30.18 852 25.16 -2.3 27.9 80 -5.2 22.6
23:45 1022 30.18 852 25.16 -2.3 27.8 81 -5.2 22.6
23:50 1022 30.18 851 25.13 -2.8 27 82 -5.4 22.3
23:55 1022 30.18 851 25.13 -3.2 26.3 83 -5.6 21.9
24:00 1022 30.18 851 25.13 -3 26.5 83 -5.6 21.9